Time;durP1;ratioP1;P1;durP2;ratioP2;P2;SDS_P1;SDS_P2;PMS_P1;PMS_P2;Temp;Humidity;BMP_temperature;BMP_pressure;BME280_temperature;BME280_humidity;BME280_pressure;Samples;Min_cycle;Max_cycle;Signal;HPM_P1;HPM_P2
2022/07/12 00:02:00;;;;;;;4.30;3.92;;;15.60;99.90;;;;;;5058130;28;20408;-77
2022/07/12 00:04:26;;;;;;;5.43;4.20;;;15.50;99.90;;;;;;5058533;28;20445;-77
2022/07/12 00:06:51;;;;;;;4.70;4.20;;;15.40;99.90;;;;;;5053663;28;20445;-77
2022/07/12 00:09:17;;;;;;;6.60;5.70;;;15.40;99.90;;;;;;5056631;28;20386;-77
2022/07/12 00:11:43;;;;;;;6.40;5.80;;;15.50;99.90;;;;;;5052189;28;20393;-77
2022/07/12 00:14:09;;;;;;;7.97;6.60;;;15.40;99.90;;;;;;5054786;28;20789;-78
2022/07/12 00:16:35;;;;;;;6.82;5.90;;;15.40;99.90;;;;;;5052437;28;20386;-77
2022/07/12 00:19:01;;;;;;;9.07;6.57;;;15.30;99.90;;;;;;5051354;28;20439;-77
2022/07/12 00:21:27;;;;;;;9.38;6.82;;;15.20;99.90;;;;;;5052741;28;20386;-77
2022/07/12 00:23:52;;;;;;;8.10;5.70;;;15.10;99.90;;;;;;5052733;28;20409;-77
2022/07/12 00:26:19;;;;;;;9.15;6.40;;;15.10;99.90;;;;;;5055321;28;20393;-77
2022/07/12 00:28:45;;;;;;;7.95;6.18;;;15.10;99.90;;;;;;5053595;28;20732;-77
2022/07/12 00:31:10;;;;;;;7.20;6.37;;;15.00;99.90;;;;;;5052030;28;20454;-78
2022/07/12 00:33:36;;;;;;;8.20;6.30;;;15.00;99.90;;;;;;5052085;28;20408;-77
2022/07/12 00:36:01;;;;;;;7.25;6.50;;;15.00;99.90;;;;;;5053155;28;20386;-76
2022/07/12 00:38:27;;;;;;;8.10;6.13;;;14.90;99.90;;;;;;5051292;28;20389;-77
2022/07/12 00:40:53;;;;;;;7.70;6.90;;;15.10;99.90;;;;;;5050067;28;20405;-77
2022/07/12 00:43:18;;;;;;;7.53;6.27;;;15.00;99.90;;;;;;5052199;28;20451;-77
2022/07/12 00:45:44;;;;;;;8.77;6.70;;;14.90;99.90;;;;;;5050321;28;20447;-76
2022/07/12 00:48:10;;;;;;;8.07;5.97;;;14.90;99.90;;;;;;5052309;28;20778;-77
2022/07/12 00:50:36;;;;;;;6.73;6.00;;;14.80;99.90;;;;;;5052121;28;20461;-77
2022/07/12 00:53:02;;;;;;;6.90;6.20;;;14.80;99.90;;;;;;5057964;28;20407;-78
2022/07/12 00:55:27;;;;;;;8.37;5.60;;;14.80;99.90;;;;;;5067731;28;20393;-78
2022/07/12 00:57:53;;;;;;;6.93;6.03;;;14.80;99.90;;;;;;5067881;28;20491;-77
2022/07/12 01:00:22;;;;;;;6.78;6.00;;;14.70;99.90;;;;;;5064308;28;20385;-77
2022/07/12 01:02:49;;;;;;;6.88;5.85;;;14.70;99.90;;;;;;5060988;28;20408;-77
2022/07/12 01:05:15;;;;;;;6.80;6.10;;;14.90;99.90;;;;;;5060506;28;20886;-76
2022/07/12 01:07:41;;;;;;;7.77;6.30;;;14.80;99.90;;;;;;5053976;28;20473;-77
2022/07/12 01:10:07;;;;;;;8.80;7.10;;;14.70;99.90;;;;;;5054515;28;20468;-78
2022/07/12 01:12:33;;;;;;;7.40;6.60;;;14.60;99.90;;;;;;5052084;28;20409;-77
2022/07/12 01:15:00;;;;;;;7.70;6.60;;;14.50;99.90;;;;;;5051676;28;20862;-77
2022/07/12 01:17:27;;;;;;;7.88;6.70;;;14.50;99.90;;;;;;5052894;28;20407;-77
2022/07/12 01:19:58;;;;;;;6.70;6.00;;;14.50;99.90;;;;;;5063270;28;20894;-77
2022/07/12 01:22:29;;;;;;;7.05;6.10;;;14.60;99.90;;;;;;5068060;28;20476;-76
2022/07/12 01:24:55;;;;;;;7.10;6.40;;;14.50;99.90;;;;;;5067553;28;20449;-77
2022/07/12 01:27:21;;;;;;;7.83;6.50;;;14.50;99.90;;;;;;5066161;28;20484;-77
2022/07/12 01:29:46;;;;;;;8.33;6.20;;;14.50;99.90;;;;;;5055616;28;20428;-78
2022/07/12 01:32:24;;;;;;;7.30;6.30;;;14.40;99.90;;;;;;5052825;28;20393;-77
2022/07/12 01:35:01;;;;;;;6.95;6.30;;;14.50;99.90;;;;;;5055339;28;20913;-77
2022/07/12 01:37:33;;;;;;;6.93;6.22;;;14.50;99.90;;;;;;5055123;28;20420;-77
2022/07/12 01:39:59;;;;;;;6.35;5.75;;;14.40;99.90;;;;;;5058799;28;20382;-78
2022/07/12 01:42:28;;;;;;;6.55;5.95;;;14.40;99.90;;;;;;5058647;28;20396;-77
2022/07/12 01:44:54;;;;;;;6.65;5.70;;;14.40;99.90;;;;;;5066286;28;20510;-77
2022/07/12 01:47:21;;;;;;;7.68;6.60;;;14.40;99.90;;;;;;5064346;28;20432;-77
2022/07/12 01:49:47;;;;;;;7.60;6.40;;;14.50;99.90;;;;;;5065919;28;20385;-77
2022/07/12 01:52:13;;;;;;;12.20;6.70;;;14.40;99.90;;;;;;5065748;28;20467;-77
2022/07/12 01:54:39;;;;;;;8.00;6.40;;;14.30;99.90;;;;;;5062211;28;20864;-77
2022/07/12 01:57:05;;;;;;;7.03;6.40;;;14.40;99.90;;;;;;5053294;28;20474;-78
2022/07/12 01:59:31;;;;;;;6.85;6.25;;;14.30;99.90;;;;;;5055787;28;20408;-77
2022/07/12 02:01:58;;;;;;;7.15;6.45;;;14.20;99.90;;;;;;5055597;28;20381;-77
2022/07/12 02:04:23;;;;;;;7.70;6.90;;;14.20;99.90;;;;;;5055963;28;20512;-77
2022/07/12 02:06:49;;;;;;;8.18;7.38;;;14.30;99.90;;;;;;5056098;28;20428;-77
2022/07/12 02:09:16;;;;;;;6.75;6.05;;;14.40;99.90;;;;;;5058144;28;20385;-78
2022/07/12 02:11:42;;;;;;;7.35;6.70;;;14.50;99.90;;;;;;5055958;28;20484;-77
2022/07/12 02:14:09;;;;;;;8.52;6.70;;;14.30;99.90;;;;;;5053674;28;20411;-77
2022/07/12 02:16:35;;;;;;;10.00;6.57;;;14.30;99.90;;;;;;5052336;28;20808;-77
2022/07/12 02:19:01;;;;;;;8.65;6.90;;;14.10;99.90;;;;;;5053700;28;20927;-77
2022/07/12 02:21:26;;;;;;;7.50;6.80;;;14.10;99.90;;;;;;5053282;28;20473;-77
2022/07/12 02:23:52;;;;;;;7.10;6.40;;;14.10;99.90;;;;;;5053394;28;20776;-77
2022/07/12 02:26:18;;;;;;;8.10;7.40;;;14.10;99.90;;;;;;5051917;28;20397;-77
2022/07/12 02:28:43;;;;;;;7.73;6.83;;;14.20;99.90;;;;;;5053401;28;20393;-77
2022/07/12 02:31:09;;;;;;;7.53;6.80;;;14.10;99.90;;;;;;5053971;28;20890;-77
2022/07/12 02:33:35;;;;;;;9.02;7.13;;;14.10;99.90;;;;;;5053908;28;20405;-77
2022/07/12 02:36:01;;;;;;;8.52;7.00;;;14.00;99.90;;;;;;5053692;28;20874;-77
2022/07/12 02:38:27;;;;;;;7.63;6.93;;;14.00;99.90;;;;;;5051898;28;20786;-77
2022/07/12 02:40:53;;;;;;;7.80;7.00;;;14.00;99.90;;;;;;5052830;28;20396;-77
2022/07/12 02:43:25;;;;;;;9.05;6.50;;;14.10;99.90;;;;;;5053159;28;20382;-77
2022/07/12 02:45:56;;;;;;;8.40;7.10;;;14.10;99.90;;;;;;5051846;28;20404;-77
2022/07/12 02:48:22;;;;;;;7.65;6.90;;;14.00;99.90;;;;;;5051470;28;20435;-77
2022/07/12 02:50:48;;;;;;;8.93;7.30;;;14.00;99.90;;;;;;5052881;28;20385;-77
2022/07/12 02:53:14;;;;;;;8.13;7.13;;;14.00;99.90;;;;;;5053160;28;20455;-77
2022/07/12 02:55:40;;;;;;;7.40;6.70;;;14.00;99.90;;;;;;5052764;28;20382;-77
2022/07/12 02:58:05;;;;;;;7.45;6.75;;;13.90;99.90;;;;;;5054601;28;20380;-77
2022/07/12 03:00:32;;;;;;;8.10;7.30;;;13.90;99.90;;;;;;5053743;28;20878;-78
2022/07/12 03:02:58;;;;;;;7.90;7.00;;;13.90;99.90;;;;;;5052518;28;20476;-75
2022/07/12 03:05:24;;;;;;;7.88;7.07;;;13.90;99.90;;;;;;5052722;28;20464;-76
2022/07/12 03:07:49;;;;;;;9.10;6.78;;;13.80;99.90;;;;;;5050997;28;20785;-75
2022/07/12 03:10:16;;;;;;;7.20;6.60;;;13.80;99.90;;;;;;5052032;28;20385;-76
2022/07/12 03:12:41;;;;;;;9.80;7.87;;;13.80;99.90;;;;;;5052178;28;20777;-75
2022/07/12 03:15:07;;;;;;;7.50;6.70;;;13.80;99.90;;;;;;5052897;28;20378;-77
2022/07/12 03:17:34;;;;;;;8.20;7.40;;;13.80;99.90;;;;;;5052532;28;20391;-76
2022/07/12 03:19:59;;;;;;;8.80;7.28;;;13.80;99.90;;;;;;5053507;28;20392;-77
2022/07/12 03:22:25;;;;;;;9.55;7.38;;;13.90;99.90;;;;;;5052979;28;20464;-77
2022/07/12 03:24:51;;;;;;;8.00;7.20;;;13.90;99.90;;;;;;5052420;28;20398;-77
2022/07/12 03:27:17;;;;;;;11.07;7.43;;;13.90;99.90;;;;;;5053317;28;20385;-77
2022/07/12 03:29:42;;;;;;;7.80;7.00;;;13.90;99.90;;;;;;5052421;28;20750;-76
2022/07/12 03:32:08;;;;;;;8.00;7.20;;;14.00;99.90;;;;;;5052805;28;20392;-77
2022/07/12 03:34:34;;;;;;;8.43;7.00;;;14.20;99.90;;;;;;5051441;28;20736;-77
2022/07/12 03:36:59;;;;;;;9.43;7.25;;;14.10;99.90;;;;;;5051860;28;20385;-77
2022/07/12 03:39:25;;;;;;;8.40;7.00;;;14.10;99.90;;;;;;5052182;28;20376;-77
2022/07/12 03:41:51;;;;;;;7.78;6.97;;;14.00;99.90;;;;;;5051845;28;20389;-77
2022/07/12 03:44:17;;;;;;;8.10;7.30;;;14.10;99.90;;;;;;5052774;28;20479;-77
2022/07/12 03:46:42;;;;;;;10.00;8.00;;;14.00;99.90;;;;;;5052565;28;20389;-76
2022/07/12 03:49:08;;;;;;;8.43;7.60;;;13.90;99.90;;;;;;5052591;28;20860;-76
2022/07/12 03:51:33;;;;;;;8.60;7.70;;;13.90;99.90;;;;;;5051082;28;20942;-77
2022/07/12 03:53:59;;;;;;;10.70;7.82;;;13.90;99.90;;;;;;5051274;28;20409;-76
2022/07/12 03:59:09;;;;;;;8.70;7.90;;;13.90;99.90;;;;;;5052723;28;20380;-75
2022/07/12 04:01:35;;;;;;;10.00;8.90;;;13.90;99.90;;;;;;5051733;28;20843;-75
2022/07/12 04:04:02;;;;;;;11.93;8.90;;;13.90;99.90;;;;;;5051903;28;20792;-75
2022/07/12 04:06:28;;;;;;;9.55;8.63;;;14.00;99.90;;;;;;5051330;28;20400;-76
2022/07/12 04:08:53;;;;;;;12.48;9.52;;;14.10;99.90;;;;;;5050291;28;20389;-75
2022/07/12 04:11:19;;;;;;;14.30;9.20;;;14.20;99.90;;;;;;5055643;28;20395;-75
2022/07/12 04:13:44;;;;;;;12.18;9.60;;;14.20;99.90;;;;;;5054651;28;20507;-77
2022/07/12 04:16:10;;;;;;;12.93;10.13;;;14.20;99.90;;;;;;5052631;28;20389;-75
2022/07/12 04:18:36;;;;;;;11.90;10.07;;;14.30;99.90;;;;;;5052873;28;20382;-76
2022/07/12 04:21:01;;;;;;;12.63;10.80;;;14.30;99.90;;;;;;5053547;28;20419;-77
2022/07/12 04:23:27;;;;;;;14.43;11.40;;;14.40;99.90;;;;;;5063709;28;20525;-77
2022/07/12 04:25:52;;;;;;;16.27;12.35;;;14.40;99.90;;;;;;5064904;28;20389;-77
2022/07/12 04:28:18;;;;;;;13.57;11.87;;;14.50;99.90;;;;;;5066386;28;20480;-78
2022/07/12 04:30:44;;;;;;;19.33;13.30;;;14.60;99.90;;;;;;5060745;28;20393;-78
2022/07/12 04:33:10;;;;;;;16.70;13.03;;;14.60;99.90;;;;;;5060619;28;20401;-77
2022/07/12 04:35:36;;;;;;;18.10;13.27;;;14.70;99.90;;;;;;5061128;28;20380;-78
2022/07/12 04:38:03;;;;;;;18.02;14.13;;;14.80;99.90;;;;;;5059740;28;20934;-78
2022/07/12 04:40:28;;;;;;;18.63;15.43;;;14.90;99.90;;;;;;5059218;28;20415;-78
2022/07/12 04:42:54;;;;;;;18.73;15.13;;;15.00;99.90;;;;;;5055802;28;20942;-78
2022/07/12 04:45:20;;;;;;;25.00;15.83;;;15.10;99.90;;;;;;5058139;28;20433;-78
2022/07/12 04:47:45;;;;;;;21.23;15.10;;;15.30;99.90;;;;;;5059643;28;20808;-78
2022/07/12 04:50:11;;;;;;;22.60;16.10;;;15.40;99.90;;;;;;5060360;28;20389;-77
2022/07/12 04:52:37;;;;;;;22.88;15.40;;;15.60;99.90;;;;;;5061640;28;20779;-77
2022/07/12 04:55:03;;;;;;;19.33;15.52;;;15.60;99.90;;;;;;5069719;28;20389;-77
2022/07/12 04:57:29;;;;;;;18.20;14.70;;;15.80;99.90;;;;;;5068681;28;20472;-77
2022/07/12 04:59:54;;;;;;;20.53;14.50;;;15.80;99.90;;;;;;5070647;28;20394;-77
2022/07/12 05:02:20;;;;;;;18.98;14.95;;;15.90;99.90;;;;;;5067456;28;20370;-77
2022/07/12 05:04:46;;;;;;;21.30;15.68;;;15.90;99.90;;;;;;5066957;28;20404;-77
2022/07/12 05:07:11;;;;;;;20.37;15.87;;;16.00;99.90;;;;;;5058900;28;20396;-78
2022/07/12 05:09:37;;;;;;;21.63;15.30;;;16.10;99.90;;;;;;5059305;28;20862;-78
2022/07/12 05:12:03;;;;;;;20.07;15.43;;;16.20;99.70;;;;;;5059528;28;20388;-77
2022/07/12 05:14:28;;;;;;;18.50;14.50;;;16.30;97.30;;;;;;5058337;28;20424;-78
2022/07/12 05:16:54;;;;;;;17.07;14.30;;;16.30;96.10;;;;;;5058468;28;20378;-77
2022/07/12 05:19:21;;;;;;;16.98;14.93;;;16.40;95.50;;;;;;5056155;28;20878;-77
2022/07/12 05:21:46;;;;;;;17.95;14.30;;;16.40;94.90;;;;;;5056606;28;20747;-77
2022/07/12 05:24:12;;;;;;;19.37;15.20;;;16.50;92.70;;;;;;5057127;28;20381;-78
2022/07/12 05:26:37;;;;;;;19.63;15.40;;;16.60;91.10;;;;;;5055013;28;20425;-77
2022/07/12 05:29:03;;;;;;;17.80;14.87;;;16.60;90.00;;;;;;5053991;28;20417;-77
2022/07/12 05:31:28;;;;;;;18.30;13.70;;;16.70;88.80;;;;;;5054241;28;20492;-76
2022/07/12 05:33:54;;;;;;;20.90;14.55;;;16.80;87.70;;;;;;5059213;28;20412;-78
2022/07/12 05:36:20;;;;;;;22.80;14.47;;;16.90;87.00;;;;;;5060101;28;20384;-78
2022/07/12 05:38:46;;;;;;;16.20;13.53;;;16.90;85.80;;;;;;5062569;28;20460;-79
2022/07/12 05:41:12;;;;;;;17.60;13.40;;;17.00;82.30;;;;;;5062165;28;20377;-78
2022/07/12 05:43:38;;;;;;;17.67;14.10;;;17.10;82.10;;;;;;5051148;28;20891;-78
2022/07/12 05:46:04;;;;;;;19.20;14.35;;;17.20;81.50;;;;;;5052461;28;20400;-78
2022/07/12 05:48:29;;;;;;;17.55;13.60;;;17.30;78.80;;;;;;5047035;28;20495;-75
2022/07/12 05:50:55;;;;;;;16.40;12.83;;;17.30;79.10;;;;;;5044909;28;20806;-70
2022/07/12 05:53:23;;;;;;;13.50;11.60;;;17.40;79.30;;;;;;5040525;28;20416;-75
2022/07/12 05:55:53;;;;;;;14.38;11.40;;;17.60;75.20;;;;;;5050487;28;20399;-75
2022/07/12 05:58:19;;;;;;;20.90;15.40;;;17.80;72.90;;;;;;5044660;28;20706;-75
2022/07/12 06:00:46;;;;;;;24.40;17.48;;;17.80;73.40;;;;;;5053892;28;20389;-76
2022/07/12 06:03:13;;;;;;;17.35;13.07;;;17.80;71.50;;;;;;5048447;28;20947;-75
2022/07/12 06:05:39;;;;;;;17.10;13.05;;;17.90;71.70;;;;;;5033726;28;20419;-76
2022/07/12 06:08:04;;;;;;;17.02;12.68;;;17.90;71.40;;;;;;5033614;28;20453;-76
2022/07/12 06:10:33;;;;;;;17.05;12.13;;;18.10;71.20;;;;;;5033976;28;20488;-76
2022/07/12 06:12:59;;;;;;;19.47;13.00;;;18.10;71.30;;;;;;5034005;28;20453;-75
2022/07/12 06:15:25;;;;;;;14.35;12.75;;;18.20;70.30;;;;;;5034899;28;20431;-75
2022/07/12 06:17:51;;;;;;;21.25;13.38;;;18.20;68.50;;;;;;5041540;28;20415;-74
2022/07/12 06:20:16;;;;;;;18.02;13.30;;;18.30;68.60;;;;;;5053230;28;20898;-75
2022/07/12 06:22:42;;;;;;;16.40;12.30;;;18.40;68.70;;;;;;5038555;28;20486;-74
2022/07/12 06:25:08;;;;;;;17.23;12.98;;;18.50;67.40;;;;;;5033612;28;20813;-75
2022/07/12 06:27:34;;;;;;;17.25;13.27;;;18.60;65.20;;;;;;5031823;28;20437;-74
2022/07/12 06:29:59;;;;;;;16.67;12.88;;;18.70;63.90;;;;;;5033386;28;20395;-75
2022/07/12 06:32:25;;;;;;;16.73;12.87;;;18.80;62.80;;;;;;5037536;28;20398;-75
2022/07/12 06:34:50;;;;;;;18.17;13.03;;;18.90;61.40;;;;;;5033444;28;20391;-77
2022/07/12 06:37:16;;;;;;;18.08;14.43;;;19.00;60.70;;;;;;5048749;28;20427;-76
2022/07/12 06:39:41;;;;;;;20.87;13.53;;;19.10;59.50;;;;;;5053154;28;20832;-77
2022/07/12 06:42:07;;;;;;;21.85;13.57;;;19.50;55.40;;;;;;5053750;28;20503;-77
2022/07/12 06:44:33;;;;;;;16.40;13.07;;;19.50;56.20;;;;;;5052723;28;20381;-76
2022/07/12 06:47:00;;;;;;;16.90;13.00;;;19.50;56.60;;;;;;5052540;28;20416;-77
2022/07/12 06:49:25;;;;;;;17.10;12.90;;;19.60;55.80;;;;;;5034549;28;20456;-75
2022/07/12 06:51:51;;;;;;;19.63;12.80;;;19.70;54.70;;;;;;5041735;28;20477;-76
2022/07/12 06:54:17;;;;;;;20.23;13.23;;;19.80;53.40;;;;;;5031516;28;20845;-76
2022/07/12 06:56:42;;;;;;;16.63;11.90;;;20.10;50.50;;;;;;5030870;28;21033;-75
2022/07/12 06:59:10;;;;;;;22.67;13.70;;;20.10;51.20;;;;;;5033115;28;20879;-76
2022/07/12 07:01:37;;;;;;;18.98;13.13;;;20.20;50.40;;;;;;5031094;28;20403;-75
2022/07/12 07:04:03;;;;;;;16.80;13.40;;;20.30;49.90;;;;;;5030874;28;20392;-75
2022/07/12 07:06:28;;;;;;;17.73;13.20;;;20.30;49.60;;;;;;5039652;28;20413;-76
2022/07/12 07:08:54;;;;;;;21.03;14.00;;;20.40;48.90;;;;;;5041417;28;20452;-76
2022/07/12 07:11:19;;;;;;;17.53;13.77;;;20.50;48.40;;;;;;5030875;28;20466;-76
2022/07/12 07:13:45;;;;;;;16.85;13.77;;;20.70;47.40;;;;;;5029641;28;20407;-76
2022/07/12 07:16:10;;;;;;;20.50;13.70;;;20.90;46.00;;;;;;5035565;28;20486;-76
2022/07/12 07:18:36;;;;;;;18.63;13.43;;;21.20;43.50;;;;;;5050745;28;20836;-76
2022/07/12 07:21:01;;;;;;;17.50;12.97;;;21.30;42.00;;;;;;5043450;28;20438;-76
2022/07/12 07:23:27;;;;;;;21.05;13.85;;;21.40;40.90;;;;;;5030946;28;20383;-76
2022/07/12 07:25:52;;;;;;;15.60;12.27;;;21.40;41.30;;;;;;5030938;28;20878;-77
2022/07/12 07:28:18;;;;;;;22.23;12.20;;;21.50;40.60;;;;;;5030230;28;20387;-75
2022/07/12 07:30:52;;;;;;;15.77;12.68;;;21.50;40.50;;;;;;5030453;28;20393;-79
2022/07/12 07:33:22;;;;;;;16.60;13.00;;;21.50;40.20;;;;;;5031165;28;20419;-76
2022/07/12 07:35:49;;;;;;;14.68;11.43;;;21.80;38.60;;;;;;5030581;28;20864;-76
2022/07/12 07:38:15;;;;;;;13.45;11.10;;;22.00;37.70;;;;;;5050386;28;20397;-79
2022/07/12 07:40:41;;;;;;;16.90;10.98;;;22.30;36.40;;;;;;5067691;28;20381;-80
2022/07/12 07:43:07;;;;;;;14.13;10.70;;;22.50;35.90;;;;;;5046272;28;20945;-78
2022/07/12 07:45:32;;;;;;;12.50;10.07;;;22.30;36.40;;;;;;5033296;28;20466;-77
2022/07/12 07:47:58;;;;;;;14.90;10.25;;;22.30;36.30;;;;;;5045252;28;20391;-76
2022/07/12 07:50:23;;;;;;;13.67;10.03;;;22.20;36.00;;;;;;5053085;28;20476;-77
2022/07/12 07:52:51;;;;;;;17.55;12.07;;;22.10;37.00;;;;;;5053612;28;20406;-77
2022/07/12 07:55:17;;;;;;;16.08;10.95;;;22.00;37.50;;;;;;5039902;28;20783;-78
2022/07/12 07:57:42;;;;;;;18.60;12.00;;;22.00;37.20;;;;;;5038168;28;20393;-78
2022/07/12 08:00:08;;;;;;;17.48;11.52;;;22.20;36.80;;;;;;5049686;28;20754;-77
2022/07/12 08:02:34;;;;;;;12.68;10.23;;;22.20;36.80;;;;;;5049101;28;20394;-76
2022/07/12 08:04:59;;;;;;;13.05;10.70;;;22.20;36.50;;;;;;5041287;28;20399;-79
2022/07/12 08:07:25;;;;;;;15.30;10.00;;;22.10;35.80;;;;;;5059900;23;20501;-74
2022/07/12 08:09:51;;;;;;;14.43;9.02;;;22.10;35.70;;;;;;5051435;28;20385;-76
2022/07/12 08:12:16;;;;;;;11.10;9.10;;;22.30;33.90;;;;;;5050342;28;20818;-73
2022/07/12 08:14:42;;;;;;;10.98;8.35;;;22.60;32.50;;;;;;5051151;28;20448;-76
2022/07/12 08:17:07;;;;;;;9.80;7.20;;;22.50;32.30;;;;;;5049793;28;20869;-76
2022/07/12 08:19:33;;;;;;;12.13;8.00;;;22.50;33.20;;;;;;5051259;28;20456;-75
2022/07/12 08:21:58;;;;;;;13.43;8.63;;;22.50;33.50;;;;;;5050900;28;20377;-76
2022/07/12 08:24:24;;;;;;;11.75;8.55;;;22.50;34.00;;;;;;5051132;28;20434;-76
2022/07/12 08:26:50;;;;;;;11.80;8.83;;;22.50;33.80;;;;;;5050522;28;20424;-76
2022/07/12 08:29:15;;;;;;;12.33;8.53;;;22.50;34.00;;;;;;5051275;28;20386;-76
2022/07/12 08:31:41;;;;;;;20.50;8.77;;;22.50;34.70;;;;;;5050859;28;20397;-76
2022/07/12 08:34:07;;;;;;;9.90;8.10;;;22.90;32.50;;;;;;5050940;28;20435;-74
2022/07/12 08:36:32;;;;;;;12.53;8.00;;;23.00;31.20;;;;;;5051424;28;20382;-76
2022/07/12 08:38:58;;;;;;;10.02;7.10;;;23.00;30.90;;;;;;5050894;28;20382;-76
2022/07/12 08:41:24;;;;;;;8.57;5.70;;;23.00;30.80;;;;;;5049825;28;20980;-75
2022/07/12 08:43:52;;;;;;;7.20;5.60;;;23.10;28.90;;;;;;5051145;28;20386;-76
2022/07/12 08:46:18;;;;;;;7.78;6.20;;;23.20;29.50;;;;;;5050820;28;20377;-76
2022/07/12 08:48:44;;;;;;;8.00;7.10;;;23.40;29.20;;;;;;5050715;28;20408;-75
2022/07/12 08:51:11;;;;;;;9.20;6.60;;;23.50;29.50;;;;;;5050803;28;20746;-74
2022/07/12 08:53:38;;;;;;;10.43;7.30;;;23.60;30.20;;;;;;5050975;28;20943;-76
2022/07/12 08:56:04;;;;;;;10.02;7.25;;;23.80;28.50;;;;;;5050870;28;20393;-75
2022/07/12 08:58:30;;;;;;;9.70;7.00;;;23.80;28.30;;;;;;5050926;28;20388;-77
2022/07/12 09:00:56;;;;;;;9.17;6.30;;;23.80;27.60;;;;;;5050646;28;20381;-75
2022/07/12 09:03:21;;;;;;;11.55;6.00;;;23.80;27.40;;;;;;5050548;28;20390;-75
2022/07/12 09:05:55;;;;;;;9.15;5.90;;;23.70;26.80;;;;;;5050402;28;20758;-75
2022/07/12 09:08:26;;;;;;;10.10;6.77;;;23.80;26.60;;;;;;5050233;28;20440;-75
2022/07/12 09:10:55;;;;;;;8.98;6.35;;;23.70;27.30;;;;;;5050260;28;20401;-74
2022/07/12 09:13:48;;;;;;;10.07;7.40;;;23.80;27.20;;;;;;5049058;28;20452;-75
2022/07/12 09:16:15;;;;;;;8.65;6.80;;;24.00;26.50;;;;;;5050670;28;20477;-76
2022/07/12 09:18:42;;;;;;;9.07;6.30;;;24.40;24.20;;;;;;5050267;28;20393;-76
2022/07/12 09:21:07;;;;;;;7.55;6.28;;;24.50;24.00;;;;;;5050168;28;20873;-75
2022/07/12 09:23:33;;;;;;;9.17;6.23;;;24.50;24.40;;;;;;5050329;28;20381;-75
2022/07/12 09:26:00;;;;;;;7.30;5.85;;;24.40;23.40;;;;;;5050103;28;20390;-75
2022/07/12 09:28:26;;;;;;;7.20;5.20;;;24.40;23.40;;;;;;5049778;28;20388;-76
2022/07/12 09:30:53;;;;;;;10.17;6.77;;;24.40;23.40;;;;;;5050371;28;20390;-76
2022/07/12 09:36:10;;;;;;;10.18;6.30;;;24.50;22.80;;;;;;5050540;28;20447;-75
2022/07/12 09:39:00;;;;;;;8.53;6.60;;;24.60;22.40;;;;;;5050047;28;20894;-76
2022/07/12 09:41:26;;;;;;;10.20;5.97;;;24.70;21.60;;;;;;5050130;28;20377;-76
2022/07/12 09:43:53;;;;;;;11.60;5.90;;;24.70;22.00;;;;;;5050307;28;20487;-76
2022/07/12 09:46:19;;;;;;;9.07;6.70;;;24.60;23.00;;;;;;5051375;28;20484;-74
2022/07/12 09:48:46;;;;;;;8.07;7.03;;;24.60;22.30;;;;;;5050220;28;20390;-75
2022/07/12 09:51:15;;;;;;;8.85;6.50;;;24.70;22.60;;;;;;5050183;28;20394;-76
2022/07/12 09:53:48;;;;;;;6.97;5.80;;;24.90;22.00;;;;;;5050160;28;20751;-76
2022/07/12 09:56:15;;;;;;;10.00;6.68;;;25.10;21.40;;;;;;5050112;28;20389;-76
2022/07/12 09:58:52;;;;;;;5.22;4.72;;;25.30;20.20;;;;;;5049871;28;20385;-75
2022/07/12 10:01:19;;;;;;;6.40;5.53;;;25.60;19.40;;;;;;5049823;28;20853;-77
2022/07/12 10:03:45;;;;;;;13.40;6.90;;;25.80;18.90;;;;;;5050053;28;20385;-77
2022/07/12 10:06:13;;;;;;;11.15;5.60;;;25.90;18.40;;;;;;5049965;28;20397;-76
2022/07/12 10:08:40;;;;;;;11.77;5.00;;;25.90;17.90;;;;;;5049337;28;20711;-75
2022/07/12 10:11:06;;;;;;;9.55;4.50;;;25.90;17.30;;;;;;5050042;28;20393;-76
2022/07/12 10:13:32;;;;;;;7.40;4.90;;;25.90;17.10;;;;;;5050064;28;20409;-77
2022/07/12 10:16:00;;;;;;;7.70;4.37;;;25.80;17.20;;;;;;5049807;28;20417;-76
2022/07/12 10:18:27;;;;;;;7.35;5.82;;;25.60;17.20;;;;;;5050330;28;20416;-75
2022/07/12 10:20:53;;;;;;;6.45;5.30;;;25.70;17.60;;;;;;5053269;28;20385;-76
2022/07/12 10:23:36;;;;;;;6.20;5.00;;;25.60;17.90;;;;;;5053290;28;20393;-76
2022/07/12 10:26:26;;;;;;;5.22;3.90;;;25.50;17.80;;;;;;5042393;28;20423;-75
2022/07/12 10:28:54;;;;;;;7.32;4.28;;;25.40;17.30;;;;;;5044508;28;20400;-76
2022/07/12 10:31:23;;;;;;;5.90;4.60;;;25.60;17.30;;;;;;5037541;28;20406;-75
2022/07/12 10:33:59;;;;;;;5.87;5.27;;;25.50;17.40;;;;;;5046086;28;20393;-76
2022/07/12 10:36:25;;;;;;;7.23;5.10;;;25.30;18.10;;;;;;5050784;28;20424;-75
2022/07/12 10:39:11;;;;;;;5.28;4.30;;;25.20;18.60;;;;;;5047656;28;20868;-75
2022/07/12 10:41:37;;;;;;;4.43;4.07;;;25.50;18.70;;;;;;5052047;28;20378;-75
2022/07/12 10:44:06;;;;;;;4.27;3.80;;;25.80;17.90;;;;;;5044505;28;20420;-75
2022/07/12 10:46:37;;;;;;;8.38;4.70;;;25.90;17.90;;;;;;5032514;28;20395;-72
2022/07/12 10:49:28;;;;;;;6.20;3.95;;;26.00;17.80;;;;;;5043205;28;20762;-74
2022/07/12 10:52:11;;;;;;;4.95;4.22;;;26.20;17.20;;;;;;5051418;28;20920;-77
2022/07/12 10:54:50;;;;;;;5.40;4.00;;;25.90;16.10;;;;;;5039699;28;20465;-76
2022/07/12 10:57:17;;;;;;;5.60;4.07;;;25.80;16.50;;;;;;5060071;28;20389;-75
2022/07/12 10:59:49;;;;;;;4.82;3.90;;;26.10;17.50;;;;;;5044827;28;20422;-74
2022/07/12 11:02:14;;;;;;;4.28;3.88;;;26.10;16.20;;;;;;5040410;28;20411;-75
2022/07/12 11:04:47;;;;;;;4.40;4.00;;;26.10;16.00;;;;;;5041944;28;20387;-75
2022/07/12 11:07:19;;;;;;;8.48;3.97;;;26.10;16.50;;;;;;5043738;28;20401;-73
2022/07/12 11:09:45;;;;;;;5.05;3.50;;;26.10;16.40;;;;;;5050954;28;20451;-76
2022/07/12 11:12:14;;;;;;;5.10;4.00;;;26.10;16.70;;;;;;5049508;28;20405;-76
2022/07/12 11:14:40;;;;;;;6.82;3.80;;;26.20;15.90;;;;;;5050632;28;20506;-76
2022/07/12 11:17:05;;;;;;;6.10;3.90;;;26.30;16.50;;;;;;5051253;28;20389;-76
2022/07/12 11:19:31;;;;;;;4.40;4.00;;;26.40;15.80;;;;;;5051062;28;20387;-76
2022/07/12 11:21:58;;;;;;;5.00;3.63;;;26.50;15.00;;;;;;5050962;28;20382;-75
2022/07/12 11:24:28;;;;;;;6.30;4.00;;;26.50;14.90;;;;;;5050250;28;20393;-76
2022/07/12 11:26:55;;;;;;;8.73;4.70;;;26.80;14.30;;;;;;5034003;28;20485;-77
2022/07/12 11:29:21;;;;;;;4.97;3.80;;;27.00;13.80;;;;;;5044361;28;20763;-76
2022/07/12 11:31:47;;;;;;;5.82;4.05;;;26.90;13.50;;;;;;5045704;28;20405;-74
2022/07/12 11:34:23;;;;;;;3.60;3.15;;;26.90;13.10;;;;;;5050685;28;20405;-75
2022/07/12 11:36:57;;;;;;;6.05;3.67;;;26.90;12.90;;;;;;5050734;28;20964;-77
2022/07/12 11:39:42;;;;;;;4.55;3.80;;;27.10;13.40;;;;;;5050324;28;20806;-75
2022/07/12 11:42:12;;;;;;;2.70;2.42;;;27.40;12.90;;;;;;5049515;28;20543;-74
2022/07/12 11:44:56;;;;;;;4.60;2.40;;;27.80;11.50;;;;;;5048622;28;20765;-75
2022/07/12 11:47:22;;;;;;;3.88;3.47;;;28.00;11.40;;;;;;5040568;28;20489;-76
2022/07/12 11:49:52;;;;;;;4.55;4.00;;;28.10;11.50;;;;;;5031745;28;20426;-74
2022/07/12 11:52:19;;;;;;;5.40;3.60;;;28.20;10.60;;;;;;5031521;28;20391;-76
2022/07/12 11:54:46;;;;;;;3.60;3.10;;;28.30;11.10;;;;;;5055402;28;20405;-75
2022/07/12 11:57:13;;;;;;;3.40;3.10;;;28.50;10.00;;;;;;5051887;28;20381;-75
2022/07/12 11:59:39;;;;;;;5.10;3.35;;;28.70;9.40;;;;;;5051463;28;20945;-76
2022/07/12 12:02:07;;;;;;;3.83;3.00;;;29.00;9.80;;;;;;5041683;28;20709;-76
2022/07/12 12:04:44;;;;;;;4.30;2.60;;;29.40;8.70;;;;;;5031591;28;20383;-75
2022/07/12 12:07:09;;;;;;;3.10;2.80;;;29.40;7.80;;;;;;5030937;28;20407;-76
2022/07/12 12:09:57;;;;;;;3.87;2.50;;;29.30;7.90;;;;;;5030895;28;20737;-76
2022/07/12 12:12:23;;;;;;;2.80;2.50;;;29.50;7.40;;;;;;5029816;28;20458;-78
2022/07/12 12:14:48;;;;;;;3.77;3.30;;;29.60;6.90;;;;;;5031631;28;20510;-74
2022/07/12 12:17:14;;;;;;;4.30;3.03;;;29.70;7.80;;;;;;5050939;28;20382;-75
2022/07/12 12:19:42;;;;;;;5.50;2.92;;;29.60;7.00;;;;;;5051071;28;20416;-75
2022/07/12 12:22:37;;;;;;;3.00;2.80;;;29.60;6.80;;;;;;5049130;28;20516;-76
2022/07/12 12:25:12;;;;;;;5.72;3.25;;;29.60;6.90;;;;;;5038404;28;20885;-76
2022/07/12 12:27:44;;;;;;;6.20;5.40;;;29.80;7.50;;;;;;5050550;28;20396;-76
2022/07/12 12:30:10;;;;;;;5.03;2.80;;;30.00;7.00;;;;;;5050981;28;20885;-76
2022/07/12 12:32:57;;;;;;;3.63;2.80;;;30.00;6.10;;;;;;5050130;28;20788;-76
2022/07/12 12:35:37;;;;;;;4.22;2.90;;;30.00;6.00;;;;;;5044413;28;20391;-76
2022/07/12 12:38:13;;;;;;;7.20;4.32;;;30.20;7.40;;;;;;5030785;28;20401;-76
2022/07/12 12:40:39;;;;;;;3.92;3.55;;;30.30;7.30;;;;;;5036131;28;20395;-74
2022/07/12 12:43:10;;;;;;;3.80;2.67;;;30.30;5.60;;;;;;5041648;28;20421;-75
2022/07/12 12:45:48;;;;;;;3.97;2.72;;;30.20;5.70;;;;;;5050509;28;20446;-75
2022/07/12 12:48:21;;;;;;;3.20;2.90;;;30.10;5.60;;;;;;5050243;28;20389;-76